Time;durP1;ratioP1;P1;durP2;ratioP2;P2;SDS_P1;SDS_P2;PMS_P1;PMS_P2;Temp;Humidity;BMP_temperature;BMP_pressure;BME280_temperature;BME280_humidity;BME280_pressure;Samples;Min_cycle;Max_cycle;Signal;HPM_P1;HPM_P2
2022/11/01 00:01:50;;;;;;;0.80;0.70;;;;;;;17.73;50.53;100349.78;5000235;28;20151;-95
2022/11/01 00:04:16;;;;;;;0.50;0.50;;;;;;;17.73;50.38;100339.81;4989831;28;20274;-94
2022/11/01 00:06:41;;;;;;;0.68;0.52;;;;;;;17.74;50.36;100336.03;4998887;28;20018;-94
2022/11/01 00:09:07;;;;;;;0.80;0.60;;;;;;;17.74;50.45;100340.63;5005104;28;20087;-93
2022/11/01 00:11:33;;;;;;;0.50;0.50;;;;;;;17.75;50.36;100340.41;4995778;28;20105;-95
2022/11/01 00:13:58;;;;;;;0.50;0.50;;;;;;;17.74;50.46;100340.63;4996072;28;20145;-94
2022/11/01 00:16:24;;;;;;;0.60;0.60;;;;;;;17.77;50.36;100342.88;4986889;28;20133;-95
2022/11/01 00:18:49;;;;;;;0.50;0.50;;;;;;;17.75;50.57;100343.09;5004941;28;20455;-94
2022/11/01 00:21:15;;;;;;;0.40;0.40;;;;;;;17.74;50.54;100332.53;5002772;28;20030;-94
2022/11/01 00:23:41;;;;;;;0.50;0.50;;;;;;;17.77;50.48;100343.69;4994117;28;20043;-94
2022/11/01 00:26:07;;;;;;;0.40;0.40;;;;;;;17.77;50.52;100335.56;4984234;28;20022;-94
2022/11/01 00:28:32;;;;;;;0.57;0.50;;;;;;;17.77;50.58;100334.75;4995664;28;20022;-94
2022/11/01 00:30:58;;;;;;;0.52;0.52;;;;;;;17.79;50.35;100343.44;4986873;28;20035;-94
2022/11/01 00:33:24;;;;;;;0.30;0.30;;;;;;;17.80;50.65;100328.88;4971911;28;20057;-94
2022/11/01 00:35:50;;;;;;;0.50;0.50;;;;;;;17.80;50.63;100331.59;4987538;28;20087;-95
2022/11/01 00:38:16;;;;;;;0.50;0.50;;;;;;;17.79;50.50;100322.63;4999121;28;20034;-94
2022/11/01 00:40:42;;;;;;;0.50;0.50;;;;;;;17.81;50.54;100327.81;4971486;28;20105;-94
2022/11/01 00:43:08;;;;;;;0.45;0.45;;;;;;;17.78;50.67;100325.56;4972146;28;20029;-94
2022/11/01 00:45:33;;;;;;;0.55;0.55;;;;;;;17.81;50.75;100328.63;4988364;28;20110;-95
2022/11/01 00:47:59;;;;;;;0.77;0.50;;;;;;;17.83;50.39;100333.78;4988992;28;20479;-94
2022/11/01 00:50:25;;;;;;;0.70;0.60;;;;;;;17.81;50.78;100331.31;5000606;28;20497;-93
2022/11/01 00:52:50;;;;;;;0.50;0.47;;;;;;;17.83;50.67;100329.22;5005524;28;20026;-95
2022/11/01 00:55:16;;;;;;;0.68;0.50;;;;;;;17.84;50.77;100328.16;4986161;28;20497;-95
2022/11/01 00:57:45;;;;;;;0.50;0.50;;;;;;;17.86;50.64;100327.09;4964743;28;20056;-94
2022/11/01 01:00:12;;;;;;;0.80;0.50;;;;;;;17.81;50.69;100325.91;4970136;28;20022;-94
2022/11/01 01:02:37;;;;;;;0.75;0.60;;;;;;;17.83;50.77;100331.09;4955651;28;20033;-94
2022/11/01 01:05:03;;;;;;;0.55;0.55;;;;;;;17.83;50.73;100329.22;4987067;28;20054;-94
2022/11/01 01:07:29;;;;;;;0.40;0.40;;;;;;;17.86;50.84;100333.34;4995994;28;20507;-94
2022/11/01 01:09:54;;;;;;;1.05;0.63;;;;;;;17.86;50.74;100327.94;4993589;28;20066;-94
2022/11/01 01:12:20;;;;;;;0.52;0.50;;;;;;;17.84;50.77;100316.53;4986819;28;20116;-94
2022/11/01 01:14:46;;;;;;;0.85;0.45;;;;;;;17.84;50.85;100320.03;5004081;28;20029;-94
2022/11/01 01:17:11;;;;;;;1.25;0.40;;;;;;;17.86;50.82;100316.28;4986903;28;20357;-94
2022/11/01 01:19:39;;;;;;;0.75;0.60;;;;;;;17.87;51.07;100326.06;4996821;28;20032;-95
2022/11/01 01:22:05;;;;;;;0.50;0.50;;;;;;;17.89;50.83;100316.66;4986342;28;20025;-95
2022/11/01 01:24:31;;;;;;;0.50;0.50;;;;;;;17.88;50.89;100325.81;4970039;28;20030;-94
2022/11/01 01:26:57;;;;;;;0.52;0.50;;;;;;;17.89;50.81;100322.06;4986215;28;20029;-94
2022/11/01 01:29:22;;;;;;;0.60;0.60;;;;;;;17.90;50.85;100325.59;4993262;28;20023;-95
2022/11/01 01:31:49;;;;;;;0.68;0.50;;;;;;;17.89;50.81;100326.66;4993105;28;20053;-94
2022/11/01 01:34:15;;;;;;;1.63;0.60;;;;;;;17.87;51.07;100321.50;4970164;28;20218;-94
2022/11/01 01:36:40;;;;;;;0.88;0.50;;;;;;;17.94;50.76;100326.78;4985403;28;20148;-94
2022/11/01 01:39:06;;;;;;;0.60;0.60;;;;;;;17.92;50.83;100327.00;4986789;28;20472;-94
2022/11/01 01:44:48;;;;;;;0.50;0.50;;;;;;;17.90;51.06;100329.13;4989139;28;20033;-95
2022/11/01 01:47:15;;;;;;;1.02;0.60;;;;;;;17.91;50.98;100319.13;4998124;28;20018;-93
2022/11/01 01:49:41;;;;;;;0.70;0.60;;;;;;;17.96;51.06;100322.75;4987082;28;20036;-94
2022/11/01 01:52:07;;;;;;;0.55;0.50;;;;;;;17.94;51.16;100330.28;5000196;28;20029;-94
2022/11/01 01:54:32;;;;;;;1.67;0.60;;;;;;;17.94;51.06;100324.06;4987713;28;20053;-94
2022/11/01 01:56:58;;;;;;;1.00;0.60;;;;;;;17.92;51.13;100332.41;4996455;28;20057;-95
2022/11/01 01:59:24;;;;;;;0.80;0.60;;;;;;;17.98;50.95;100330.63;4990026;28;20030;-94
2022/11/01 02:01:49;;;;;;;1.40;0.60;;;;;;;17.97;51.07;100323.56;4996445;28;20054;-94
2022/11/01 02:04:38;;;;;;;0.80;0.70;;;;;;;17.97;51.01;100327.13;4972750;28;20034;-94
2022/11/01 02:07:07;;;;;;;0.60;0.50;;;;;;;17.97;51.00;100323.56;4983434;28;20033;-94
2022/11/01 02:09:33;;;;;;;0.60;0.60;;;;;;;18.00;50.92;100328.50;4980326;28;20041;-94
2022/11/01 02:11:58;;;;;;;0.52;0.50;;;;;;;17.96;51.22;100321.94;4998564;28;20026;-94
2022/11/01 02:14:24;;;;;;;0.52;0.52;;;;;;;18.00;51.20;100320.41;4974127;28;20066;-94
2022/11/01 02:17:19;;;;;;;0.65;0.60;;;;;;;18.03;51.04;100322.63;4968885;28;20030;-95
2022/11/01 02:20:19;;;;;;;0.65;0.60;;;;;;;18.01;51.21;100322.06;4994639;28;20122;-94
2022/11/01 02:23:03;;;;;;;0.50;0.50;;;;;;;17.99;51.19;100316.06;5004847;28;20052;-94
2022/11/01 02:25:35;;;;;;;1.30;0.65;;;;;;;17.99;51.16;100316.88;5004483;28;20034;-94
2022/11/01 02:28:28;;;;;;;0.90;0.60;;;;;;;18.00;51.31;100320.41;4996462;28;20034;-94
2022/11/01 02:31:12;;;;;;;0.82;0.70;;;;;;;18.01;51.29;100322.06;4995900;28;20029;-95
2022/11/01 02:33:46;;;;;;;0.57;0.57;;;;;;;17.99;51.07;100316.06;5000686;28;20483;-94
2022/11/01 02:36:20;;;;;;;1.10;0.70;;;;;;;17.99;51.30;100319.59;4974590;28;20374;-95
2022/11/01 02:38:51;;;;;;;0.60;0.60;;;;;;;18.01;51.29;100324.75;4990108;28;20323;-94
2022/11/01 02:41:21;;;;;;;0.60;0.60;;;;;;;18.04;51.22;100328.84;4989360;28;20387;-94
2022/11/01 02:44:08;;;;;;;0.70;0.70;;;;;;;18.04;51.31;100329.69;4985485;28;20025;-94
2022/11/01 02:49:21;;;;;;;0.70;0.70;;;;;;;18.01;51.40;100325.56;4975696;28;20120;-94
2022/11/01 02:51:46;;;;;;;0.63;0.50;;;;;;;18.04;51.20;100329.69;4977574;28;20029;-95
2022/11/01 02:54:37;;;;;;;1.05;0.60;;;;;;;18.04;51.40;100329.69;4989874;28;20041;-95
2022/11/01 02:57:21;;;;;;;0.60;0.60;;;;;;;18.06;51.41;100326.72;4982593;28;20033;-95
2022/11/01 02:59:47;;;;;;;0.65;0.65;;;;;;;18.07;51.29;100329.19;4991524;28;20093;-94
2022/11/01 03:02:17;;;;;;;1.13;0.60;;;;;;;18.10;51.18;100328.72;4977590;28;20064;-95
2022/11/01 03:04:43;;;;;;;0.50;0.50;;;;;;;18.04;51.46;100327.00;4993769;28;20112;-94
2022/11/01 03:07:09;;;;;;;0.60;0.60;;;;;;;18.07;51.41;100326.50;4967960;28;20484;-95
2022/11/01 03:09:35;;;;;;;0.50;0.50;;;;;;;18.07;51.30;100326.50;4993515;28;20069;-94
2022/11/01 03:12:03;;;;;;;0.60;0.60;;;;;;;18.09;51.37;100332.50;4991174;28;20101;-95
2022/11/01 03:14:36;;;;;;;0.60;0.50;;;;;;;18.08;51.33;100335.44;4991410;28;20030;-94
2022/11/01 03:17:51;;;;;;;0.57;0.57;;;;;;;18.09;51.42;100327.09;4991577;28;20037;-95
2022/11/01 03:20:47;;;;;;;0.70;0.70;;;;;;;18.10;51.57;100330.63;4911576;29;20071;-95
2022/11/01 03:23:43;;;;;;;0.68;0.57;;;;;;;18.07;51.37;100328.38;4897446;29;20043;-94
2022/11/01 03:26:10;;;;;;;0.77;0.52;;;;;;;18.07;51.45;100331.91;4962778;28;20046;-94
2022/11/01 03:28:39;;;;;;;4.13;0.70;;;;;;;18.08;51.39;100332.75;4959753;28;20017;-96
2022/11/01 03:31:11;;;;;;;0.70;0.68;;;;;;;18.11;51.33;100334.94;4986137;28;20034;-94
2022/11/01 03:33:43;;;;;;;0.70;0.70;;;;;;;18.08;51.39;100336.25;4986470;28;20046;-94
2022/11/01 03:36:10;;;;;;;0.60;0.60;;;;;;;18.10;51.40;100331.44;4972864;28;20498;-94
2022/11/01 03:38:38;;;;;;;0.63;0.50;;;;;;;18.11;51.41;100330.38;4989850;28;20026;-95
2022/11/01 03:41:08;;;;;;;0.60;0.60;;;;;;;18.10;51.52;100328.72;5007327;28;20020;-95
2022/11/01 03:43:34;;;;;;;0.70;0.60;;;;;;;18.11;51.38;100330.38;4988302;28;20049;-95
2022/11/01 03:45:59;;;;;;;0.98;0.63;;;;;;;18.13;51.37;100328.25;5004904;28;20557;-95
2022/11/01 03:48:25;;;;;;;0.60;0.50;;;;;;;18.12;51.46;100337.41;4994086;28;20049;-94
2022/11/01 03:50:52;;;;;;;0.85;0.50;;;;;;;18.14;51.50;100337.19;4987168;28;20434;-94
2022/11/01 03:53:18;;;;;;;2.28;0.70;;;;;;;18.13;51.47;100327.44;5002240;28;20026;-94
2022/11/01 03:55:43;;;;;;;1.27;0.63;;;;;;;18.14;51.39;100329.06;4995876;28;20148;-96
2022/11/01 03:58:09;;;;;;;1.30;0.60;;;;;;;18.12;51.58;100326.59;4988990;28;20498;-95
2022/11/01 04:00:44;;;;;;;0.50;0.50;;;;;;;18.15;51.60;100336.13;4985729;28;20030;-95
2022/11/01 04:03:10;;;;;;;0.63;0.57;;;;;;;18.15;51.50;100333.44;5006444;28;20026;-94
2022/11/01 04:05:38;;;;;;;1.45;0.63;;;;;;;18.14;51.38;100324.50;4989672;28;20029;-95
2022/11/01 04:08:04;;;;;;;0.50;0.50;;;;;;;18.12;51.47;100321.19;4988415;28;20491;-93
2022/11/01 04:10:29;;;;;;;1.48;0.77;;;;;;;18.14;51.42;100329.91;4990782;28;20026;-95
2022/11/01 04:12:55;;;;;;;0.50;0.50;;;;;;;18.15;51.43;100326.13;5000762;28;20052;-95
2022/11/01 04:20:54;;;;;;;0.85;0.70;;;;;;;18.14;51.45;100327.22;4989666;28;20401;-94
2022/11/01 04:23:20;;;;;;;0.70;0.60;;;;;;;18.14;51.54;100332.63;4993503;28;20026;-94
2022/11/01 04:25:46;;;;;;;0.95;0.60;;;;;;;18.13;51.56;100332.84;4998846;28;20018;-95
2022/11/01 04:28:12;;;;;;;0.65;0.60;;;;;;;18.16;51.55;100333.19;4987570;28;20046;-94
2022/11/01 04:30:38;;;;;;;0.88;0.65;;;;;;;18.14;51.58;100335.31;4972210;28;20022;-94
2022/11/01 04:33:03;;;;;;;0.60;0.60;;;;;;;18.16;51.43;100338.59;4968865;28;20503;-95
2022/11/01 04:35:29;;;;;;;0.88;0.80;;;;;;;18.18;51.52;100343.78;4960513;28;20070;-95
2022/11/01 04:37:56;;;;;;;0.98;0.60;;;;;;;18.15;51.41;100336.94;4981320;28;20476;-95
2022/11/01 04:40:21;;;;;;;0.75;0.50;;;;;;;18.15;51.47;100339.66;4959565;28;20447;-94
2022/11/01 04:42:47;;;;;;;0.82;0.63;;;;;;;18.20;51.48;100338.94;4974124;28;20492;-95
2022/11/01 04:45:13;;;;;;;0.75;0.60;;;;;;;18.20;51.49;100344.34;4979821;28;20023;-94
2022/11/01 04:47:38;;;;;;;1.95;0.70;;;;;;;18.21;51.50;100345.97;4976789;28;20480;-95
2022/11/01 04:50:04;;;;;;;0.93;0.50;;;;;;;18.20;51.39;100345.16;4981364;28;20447;-94
2022/11/01 04:52:30;;;;;;;0.90;0.60;;;;;;;18.16;51.51;100338.59;4969193;28;20027;-93
2022/11/01 04:54:56;;;;;;;0.60;0.60;;;;;;;18.20;51.46;100341.66;4969296;28;20436;-94
2022/11/01 04:57:21;;;;;;;1.20;0.70;;;;;;;18.21;51.67;100351.38;4982787;28;20031;-95
2022/11/01 04:59:54;;;;;;;0.50;0.50;;;;;;;18.20;51.45;100350.56;5002451;28;20030;-94
2022/11/01 05:02:20;;;;;;;0.60;0.55;;;;;;;18.20;51.50;100349.75;4982932;28;20465;-95
2022/11/01 05:04:46;;;;;;;0.60;0.60;;;;;;;18.19;51.53;100346.22;4979715;28;20084;-95
2022/11/01 05:07:12;;;;;;;0.88;0.68;;;;;;;18.19;51.56;100348.91;4974473;28;20649;-96
2022/11/01 05:09:38;;;;;;;1.27;0.85;;;;;;;18.19;51.58;100343.50;4982271;28;20030;-95
2022/11/01 05:12:03;;;;;;;0.63;0.63;;;;;;;18.20;51.43;100353.28;4976353;28;20085;-95
2022/11/01 05:14:29;;;;;;;0.70;0.70;;;;;;;18.20;51.43;100347.88;4972036;28;20038;-95
2022/11/01 05:16:55;;;;;;;0.50;0.50;;;;;;;18.25;51.47;100351.72;4977801;28;20042;-94
2022/11/01 05:19:21;;;;;;;0.95;0.57;;;;;;;18.22;51.51;100347.63;4982237;28;20105;-94
2022/11/01 05:21:47;;;;;;;0.80;0.70;;;;;;;18.24;51.40;100355.50;4982346;28;20037;-94
2022/11/01 05:24:12;;;;;;;0.73;0.65;;;;;;;18.21;51.54;100345.97;4979311;28;20035;-95
2022/11/01 05:26:38;;;;;;;0.90;0.60;;;;;;;18.17;51.54;100345.63;4976183;28;20407;-94
2022/11/01 05:29:04;;;;;;;0.90;0.63;;;;;;;18.20;51.52;100350.56;4969934;28;20068;-95
2022/11/01 05:31:29;;;;;;;0.70;0.60;;;;;;;18.25;51.51;100357.13;4978627;28;20117;-95
2022/11/01 05:33:55;;;;;;;1.02;0.70;;;;;;;18.23;51.52;100351.16;4996902;28;20210;-96
2022/11/01 05:36:20;;;;;;;0.52;0.52;;;;;;;18.23;51.72;100351.16;5000017;28;20189;-94
2022/11/01 05:38:46;;;;;;;0.73;0.50;;;;;;;18.15;51.62;100341.53;5000842;28;20097;-95
2022/11/01 05:41:12;;;;;;;0.82;0.60;;;;;;;18.15;51.61;100347.75;5001191;28;20026;-95
2022/11/01 05:43:37;;;;;;;0.60;0.60;;;;;;;18.15;51.42;100341.53;4997100;28;20058;-95
2022/11/01 05:46:04;;;;;;;0.60;0.60;;;;;;;18.14;51.43;100339.88;4991022;28;20396;-95
2022/11/01 05:48:29;;;;;;;0.40;0.40;;;;;;;18.11;51.57;100335.78;4994090;28;20034;-95
2022/11/01 05:50:55;;;;;;;0.60;0.60;;;;;;;18.23;51.42;100349.28;5001772;28;20053;-94
2022/11/01 05:53:20;;;;;;;0.85;0.80;;;;;;;18.16;51.53;100349.41;4989588;28;20064;-95
2022/11/01 05:55:46;;;;;;;0.50;0.50;;;;;;;18.24;51.45;100348.22;4998058;28;20038;-95
2022/11/01 05:58:12;;;;;;;0.60;0.60;;;;;;;18.24;51.57;100355.50;5008765;28;20026;-94
2022/11/01 06:00:37;;;;;;;0.80;0.70;;;;;;;18.14;51.83;100340.72;5005915;28;20034;-94
2022/11/01 06:03:03;;;;;;;0.68;0.68;;;;;;;18.17;51.48;100342.94;4995082;28;20023;-94
2022/11/01 06:05:29;;;;;;;0.47;0.43;;;;;;;18.26;51.46;100353.38;5001635;28;20046;-95
2022/11/01 06:07:54;;;;;;;0.60;0.60;;;;;;;18.28;51.49;100356.66;4996666;28;20018;-94
2022/11/01 06:10:20;;;;;;;1.15;0.57;;;;;;;18.26;51.49;100369.63;5011630;28;20026;-94
2022/11/01 06:12:46;;;;;;;0.77;0.70;;;;;;;18.24;51.65;100359.03;4989044;28;20030;-95
2022/11/01 06:15:11;;;;;;;0.82;0.70;;;;;;;18.25;51.47;100373.38;4974627;28;20113;-95
2022/11/01 06:17:37;;;;;;;0.73;0.40;;;;;;;18.27;51.38;100371.28;5000876;28;20027;-95
2022/11/01 06:20:03;;;;;;;0.60;0.50;;;;;;;18.23;51.84;100367.38;5000683;28;20045;-95
2022/11/01 06:22:28;;;;;;;1.85;0.50;;;;;;;18.25;51.53;100373.38;5007653;28;20062;-95
2022/11/01 06:24:54;;;;;;;0.98;0.65;;;;;;;18.26;51.40;100369.63;4973559;28;20065;-94
2022/11/01 06:27:20;;;;;;;1.13;0.60;;;;;;;18.23;51.37;100362.81;5005345;28;20224;-95
2022/11/01 06:29:45;;;;;;;0.70;0.70;;;;;;;18.19;51.35;100370.56;4975550;28;20034;-95
2022/11/01 06:32:11;;;;;;;0.63;0.50;;;;;;;18.27;51.63;100376.69;4987837;28;20053;-94
2022/11/01 06:34:36;;;;;;;1.08;0.70;;;;;;;18.19;51.45;100364.34;4999650;28;20506;-95
2022/11/01 06:37:02;;;;;;;0.73;0.50;;;;;;;18.13;51.51;100360.72;4971989;28;20447;-94
2022/11/01 06:39:28;;;;;;;1.05;0.60;;;;;;;18.21;51.41;100370.31;4987689;28;20069;-94
2022/11/01 06:41:53;;;;;;;0.60;0.50;;;;;;;18.23;51.47;100376.34;5010416;28;20026;-95
2022/11/01 06:44:19;;;;;;;0.60;0.60;;;;;;;18.19;51.50;100367.03;5003441;28;20092;-95
2022/11/01 06:46:44;;;;;;;0.88;0.70;;;;;;;18.20;51.32;100369.50;4976534;28;20092;-95
2022/11/01 06:49:10;;;;;;;1.40;0.40;;;;;;;18.16;51.21;100362.94;5006253;28;20041;-94
2022/11/01 06:51:36;;;;;;;0.55;0.55;;;;;;;18.17;51.37;100364.56;5005952;28;20022;-94
2022/11/01 06:54:01;;;;;;;0.80;0.68;;;;;;;18.17;51.27;100361.88;4991737;28;20026;-94
2022/11/01 06:56:27;;;;;;;0.47;0.47;;;;;;;18.16;51.34;100360.25;5003114;28;20053;-94
2022/11/01 06:58:52;;;;;;;0.50;0.50;;;;;;;18.17;51.30;100359.16;4996934;28;20062;-95
2022/11/01 07:01:20;;;;;;;0.68;0.60;;;;;;;18.19;51.41;100372.44;4997456;28;20049;-94
2022/11/01 07:03:49;;;;;;;0.50;0.50;;;;;;;18.16;51.20;100360.25;4992379;28;20033;-95
2022/11/01 07:06:15;;;;;;;0.47;0.45;;;;;;;18.14;51.21;100367.78;4997297;28;20050;-94
2022/11/01 07:08:40;;;;;;;0.50;0.50;;;;;;;18.20;51.25;100366.00;4997462;28;20502;-95
2022/11/01 07:11:06;;;;;;;2.30;0.60;;;;;;;18.26;51.14;100375.03;5005473;28;20027;-95
2022/11/01 07:13:33;;;;;;;0.50;0.50;;;;;;;18.15;51.13;100364.00;4986649;28;20376;-94
2022/11/01 07:16:03;;;;;;;0.43;0.43;;;;;;;18.29;51.20;100379.97;5000517;28;20419;-94
2022/11/01 07:18:29;;;;;;;0.40;0.40;;;;;;;18.29;51.16;100379.97;4992062;28;20133;-94
2022/11/01 07:20:55;;;;;;;0.50;0.50;;;;;;;18.29;50.98;100377.25;4987089;28;20022;-94
2022/11/01 07:23:21;;;;;;;0.68;0.60;;;;;;;18.17;51.09;100369.97;4990830;28;20550;-94
2022/11/01 07:25:50;;;;;;;0.70;0.70;;;;;;;18.26;51.04;100391.25;4981804;28;20026;-94
2022/11/01 07:28:16;;;;;;;0.85;0.60;;;;;;;18.27;51.21;100387.50;4975739;28;20501;-95
2022/11/01 07:30:42;;;;;;;0.70;0.70;;;;;;;18.30;51.02;100389.69;5000764;28;20030;-94
2022/11/01 07:33:07;;;;;;;0.50;0.50;;;;;;;18.29;51.04;100390.78;4988205;28;20037;-94
2022/11/01 07:35:34;;;;;;;0.85;0.60;;;;;;;18.25;51.05;100393.16;4982310;28;20443;-94
2022/11/01 07:38:00;;;;;;;0.50;0.50;;;;;;;18.26;51.19;100385.84;4989068;28;20030;-94
2022/11/01 07:40:28;;;;;;;2.25;0.68;;;;;;;18.26;51.26;100396.66;4974157;28;20025;-95
2022/11/01 07:42:59;;;;;;;0.65;0.50;;;;;;;18.29;51.17;100390.78;4987386;28;20026;-93
2022/11/01 07:45:28;;;;;;;0.57;0.57;;;;;;;18.27;51.07;100403.72;4990002;28;20034;-93
2022/11/01 07:48:03;;;;;;;0.65;0.47;;;;;;;18.27;51.25;100406.44;4988220;28;20030;-94
2022/11/01 07:50:30;;;;;;;2.33;0.60;;;;;;;18.28;50.97;100405.34;4998448;28;20402;-94
2022/11/01 07:53:02;;;;;;;1.20;0.60;;;;;;;18.27;51.09;100407.25;5000855;28;20029;-94
2022/11/01 07:55:28;;;;;;;0.70;0.70;;;;;;;18.26;51.21;100405.59;4987323;28;20143;-94
2022/11/01 07:57:53;;;;;;;0.50;0.50;;;;;;;18.26;51.17;100412.91;5004548;28;20499;-95
2022/11/01 08:00:19;;;;;;;0.60;0.55;;;;;;;18.26;51.18;100418.31;4995985;28;20410;-95
2022/11/01 08:02:45;;;;;;;1.27;0.60;;;;;;;18.27;51.20;100417.25;5001929;28;20033;-94
2022/11/01 08:05:11;;;;;;;0.55;0.55;;;;;;;18.25;51.24;100412.09;4993892;28;20078;-95
2022/11/01 08:07:40;;;;;;;1.63;0.50;;;;;;;18.27;51.25;100419.97;4990800;28;20125;-95
2022/11/01 08:10:07;;;;;;;0.98;0.50;;;;;;;18.28;51.09;100424.28;4989031;28;20058;-95
2022/11/01 08:12:33;;;;;;;0.55;0.50;;;;;;;18.29;51.12;100420.53;4973368;28;20038;-94
2022/11/01 08:14:59;;;;;;;0.60;0.60;;;;;;;18.30;51.11;100419.47;4987329;28;20026;-95
2022/11/01 08:17:25;;;;;;;0.70;0.70;;;;;;;18.28;51.35;100416.19;5005486;28;20401;-94
2022/11/01 08:19:50;;;;;;;0.50;0.50;;;;;;;18.28;51.19;100429.72;5001838;28;20365;-94
2022/11/01 08:22:16;;;;;;;0.82;0.70;;;;;;;18.22;51.34;100430.66;5006383;28;20052;-95
2022/11/01 08:24:41;;;;;;;0.60;0.60;;;;;;;18.27;51.43;100430.78;4988002;28;20519;-95
2022/11/01 08:27:07;;;;;;;0.40;0.40;;;;;;;18.27;51.36;100430.78;5005266;28;20037;-95
2022/11/01 08:29:33;;;;;;;0.55;0.50;;;;;;;18.29;51.20;100439.47;5005855;28;20029;-95
2022/11/01 08:31:58;;;;;;;0.65;0.60;;;;;;;18.28;51.48;100438.66;4996550;28;20032;-94
2022/11/01 08:34:24;;;;;;;0.70;0.60;;;;;;;18.28;51.46;100444.06;4998659;28;20038;-95
2022/11/01 08:36:49;;;;;;;0.70;0.60;;;;;;;18.32;51.32;100444.41;4997544;28;20483;-94
2022/11/01 08:39:15;;;;;;;0.55;0.55;;;;;;;18.30;51.57;100444.66;5003313;28;20094;-94
2022/11/01 08:41:41;;;;;;;0.60;0.55;;;;;;;18.27;51.42;100444.31;4998701;28;20097;-95
2022/11/01 08:44:06;;;;;;;0.60;0.60;;;;;;;18.29;51.26;100444.88;4976234;28;20041;-95
2022/11/01 08:46:32;;;;;;;1.85;0.65;;;;;;;18.31;51.39;100442.75;4991226;28;20029;-95
2022/11/01 08:48:59;;;;;;;1.33;0.73;;;;;;;18.31;51.48;100438.16;5003068;28;20022;-94
2022/11/01 08:51:26;;;;;;;0.50;0.50;;;;;;;18.31;51.54;100443.56;5007708;28;20030;-95
2022/11/01 08:53:55;;;;;;;0.57;0.57;;;;;;;18.32;51.46;100439.00;5002739;28;20042;-94
2022/11/01 08:56:24;;;;;;;0.73;0.50;;;;;;;18.31;51.60;100443.56;5003308;28;20048;-95
2022/11/01 08:58:50;;;;;;;0.80;0.68;;;;;;;18.36;51.60;100437.47;5004893;28;20061;-95
2022/11/01 09:01:15;;;;;;;0.50;0.50;;;;;;;18.33;51.36;100446.91;4996551;28;20101;-95
2022/11/01 09:03:41;;;;;;;0.40;0.40;;;;;;;18.32;51.62;100445.22;4971063;28;20125;-95
2022/11/01 09:06:07;;;;;;;0.60;0.60;;;;;;;18.30;51.39;100439.25;4992636;28;20045;-95
2022/11/01 09:08:32;;;;;;;0.90;0.60;;;;;;;18.35;51.48;100447.47;4989452;28;20102;-95
2022/11/01 09:10:58;;;;;;;0.70;0.60;;;;;;;18.34;51.65;100445.81;4993834;28;20045;-95
2022/11/01 09:13:24;;;;;;;0.77;0.77;;;;;;;18.34;51.58;100442.28;5007805;28;20033;-95
2022/11/01 09:15:49;;;;;;;0.60;0.60;;;;;;;18.33;51.78;100440.63;5005449;28;20114;-94
2022/11/01 09:18:15;;;;;;;0.60;0.60;;;;;;;18.35;51.59;100443.91;5008169;28;20566;-95
2022/11/01 09:20:40;;;;;;;0.60;0.60;;;;;;;18.38;51.59;100444.31;5003614;28;20030;-95
2022/11/01 09:23:06;;;;;;;0.75;0.60;;;;;;;18.38;51.73;100454.28;5006932;28;20030;-95
2022/11/01 09:25:32;;;;;;;0.55;0.55;;;;;;;18.38;51.72;100448.88;5000323;28;20057;-95
2022/11/01 09:27:57;;;;;;;0.70;0.68;;;;;;;18.37;51.67;100450.75;5004154;28;20018;-95
2022/11/01 09:30:24;;;;;;;0.57;0.57;;;;;;;18.36;51.60;100451.00;5014714;28;20026;-95
2022/11/01 09:32:49;;;;;;;0.50;0.50;;;;;;;18.35;51.75;100449.34;4996301;28;20046;-95
2022/11/01 09:35:16;;;;;;;0.98;0.52;;;;;;;18.34;51.71;100443.09;5017422;28;20040;-94
2022/11/01 09:37:42;;;;;;;0.70;0.70;;;;;;;18.37;51.59;100441.81;5020436;28;20026;-94
2022/11/01 09:40:09;;;;;;;1.58;0.55;;;;;;;18.31;52.08;100446.28;5016521;28;20022;-95
2022/11/01 09:42:38;;;;;;;1.10;0.70;;;;;;;18.36;51.77;100445.59;5001354;28;20080;-95
2022/11/01 09:45:21;;;;;;;0.45;0.43;;;;;;;18.29;51.79;100444.88;5002783;28;20384;-95
2022/11/01 09:47:49;;;;;;;1.25;0.60;;;;;;;18.37;51.60;100447.25;5002554;28;20109;-95
2022/11/01 09:50:28;;;;;;;0.60;0.60;;;;;;;18.38;51.82;100448.88;5000687;28;20018;-95
2022/11/01 09:52:53;;;;;;;0.55;0.55;;;;;;;18.42;51.72;100449.22;4975016;28;20027;-95
2022/11/01 09:55:45;;;;;;;0.63;0.60;;;;;;;18.41;51.87;100448.41;4995033;28;20062;-95
2022/11/01 09:58:47;;;;;;;1.77;0.60;;;;;;;18.39;51.69;100439.69;5004713;28;20060;-95
2022/11/01 10:01:23;;;;;;;0.82;0.60;;;;;;;18.39;51.85;100440.50;5006445;28;20305;-95
2022/11/01 10:04:19;;;;;;;0.88;0.68;;;;;;;18.39;51.76;100442.41;5000628;28;20102;-95
2022/11/01 10:06:50;;;;;;;1.85;0.60;;;;;;;18.41;51.72;100447.59;5006201;28;20034;-94
2022/11/01 10:09:42;;;;;;;0.85;0.60;;;;;;;18.41;51.88;100442.16;5006137;28;20038;-95
2022/11/01 10:12:23;;;;;;;2.20;0.80;;;;;;;18.42;51.85;100443.78;5012037;28;20037;-96
2022/11/01 10:15:13;;;;;;;0.88;0.60;;;;;;;18.42;51.90;100435.69;4989622;28;20030;-96
2022/11/01 10:17:48;;;;;;;0.40;0.40;;;;;;;18.39;52.10;100440.50;5008718;28;20038;-95
2022/11/01 10:20:14;;;;;;;1.88;0.95;;;;;;;18.42;51.82;100441.94;5017582;28;20021;-95
2022/11/01 10:22:42;;;;;;;0.60;0.60;;;;;;;18.42;51.70;100444.66;5015574;28;20109;-95
2022/11/01 10:25:30;;;;;;;0.60;0.52;;;;;;;18.43;51.82;100445.47;4984803;28;20048;-95
2022/11/01 10:28:22;;;;;;;0.63;0.63;;;;;;;18.41;51.70;100448.41;5015504;28;20037;-95
2022/11/01 10:30:53;;;;;;;0.52;0.52;;;;;;;18.43;52.14;100446.25;4999610;28;20033;-95
2022/11/01 10:33:34;;;;;;;1.08;0.68;;;;;;;18.43;51.85;100446.25;4996545;28;20062;-95
2022/11/01 10:36:16;;;;;;;0.40;0.40;;;;;;;18.43;51.69;100450.88;4976544;28;20041;-94
2022/11/01 10:38:49;;;;;;;0.60;0.50;;;;;;;18.46;51.63;100445.81;5014445;28;20030;-95
2022/11/01 10:41:32;;;;;;;0.60;0.60;;;;;;;18.45;51.79;100443.31;5000060;28;20057;-94
2022/11/01 10:44:01;;;;;;;0.70;0.70;;;;;;;18.46;51.82;100444.97;4987488;28;20027;-95
2022/11/01 10:46:31;;;;;;;0.57;0.50;;;;;;;18.46;51.92;100442.28;4996880;28;20034;-95
2022/11/01 10:49:02;;;;;;;0.70;0.70;;;;;;;18.46;51.91;100442.28;4986291;28;20503;-95
2022/11/01 10:51:28;;;;;;;0.80;0.60;;;;;;;18.48;51.72;100448.28;4999844;28;20057;-96
2022/11/01 10:53:56;;;;;;;0.50;0.50;;;;;;;18.49;51.99;100441.78;4986332;28;20050;-96
2022/11/01 10:56:27;;;;;;;0.88;0.50;;;;;;;18.49;52.04;100437.22;5003568;28;20036;-95
2022/11/01 10:59:03;;;;;;;0.73;0.65;;;;;;;18.48;51.94;100446.38;5002088;28;20034;-95
2022/11/01 11:01:32;;;;;;;0.55;0.55;;;;;;;18.45;51.91;100443.31;5001733;28;20030;-95
2022/11/01 11:04:00;;;;;;;0.60;0.60;;;;;;;18.50;51.90;100446.97;5006714;28;20019;-96
2022/11/01 11:06:25;;;;;;;0.50;0.50;;;;;;;18.47;52.10;100452.88;4994973;28;20026;-95
2022/11/01 11:08:52;;;;;;;0.95;0.70;;;;;;;18.47;51.97;100447.47;4988805;28;20062;-95
2022/11/01 11:11:19;;;;;;;0.50;0.50;;;;;;;18.50;51.84;100449.66;4984224;28;20044;-96
2022/11/01 11:13:51;;;;;;;0.70;0.50;;;;;;;18.49;51.86;100445.31;5005042;28;20029;-96
2022/11/01 11:16:29;;;;;;;0.73;0.65;;;;;;;18.48;52.13;100454.50;5017804;28;20061;-96
2022/11/01 11:19:14;;;;;;;1.27;0.70;;;;;;;18.51;51.98;100440.50;5006556;28;20060;-95
2022/11/01 11:21:39;;;;;;;;;;;;;;;18.52;51.76;100439.44;5026651;28;20014;-96
2022/11/01 11:24:05;;;;;;;0.85;0.70;;;;;;;18.53;52.11;100445.66;5006666;28;19897;-95
2022/11/01 11:26:36;;;;;;;0.60;0.60;;;;;;;18.52;52.05;100452.97;5017032;28;20040;-96
2022/11/01 11:29:01;;;;;;;0.60;0.60;;;;;;;18.50;51.98;100449.66;5016580;28;20052;-96
2022/11/01 11:31:34;;;;;;;0.70;0.60;;;;;;;18.50;51.95;100444.25;5018689;28;20029;-96
2022/11/01 11:34:41;;;;;;;0.90;0.70;;;;;;;18.53;51.83;100446.47;5018325;28;20052;-96
2022/11/01 11:37:15;;;;;;;0.63;0.60;;;;;;;18.52;51.89;100452.97;4960718;29;20395;-96
2022/11/01 11:39:41;;;;;;;0.65;0.65;;;;;;;18.50;52.26;100449.66;4969989;29;20031;-95
2022/11/01 11:42:20;;;;;;;0.60;0.60;;;;;;;18.51;51.94;100454.03;4980696;28;20045;-96
2022/11/01 11:44:47;;;;;;;0.70;0.60;;;;;;;18.54;51.89;100448.13;5007216;28;20033;-96